createdAt,value
2018-06-22T00:02:10.978Z,14.00
2018-06-22T00:04:41.590Z,14.10
2018-06-22T00:07:11.775Z,14.00
2018-06-22T00:09:42.011Z,14.20
2018-06-22T00:12:12.210Z,14.10
2018-06-22T00:14:42.387Z,14.20
2018-06-22T00:17:12.615Z,14.10
2018-06-22T00:19:43.274Z,14.20
2018-06-22T00:22:13.498Z,14.20
2018-06-22T00:24:43.686Z,14.20
2018-06-22T00:27:13.927Z,14.20
2018-06-22T00:29:44.137Z,13.90
2018-06-22T00:32:14.350Z,13.80
2018-06-22T00:34:44.561Z,13.70
2018-06-22T00:37:14.790Z,13.50
2018-06-22T00:39:45.003Z,13.50
2018-06-22T00:42:15.258Z,13.30
2018-06-22T00:44:45.498Z,13.40
2018-06-22T00:47:15.774Z,13.20
2018-06-22T00:49:45.970Z,13.20
2018-06-22T00:52:16.206Z,13.20
2018-06-22T00:54:46.794Z,13.20
2018-06-22T00:57:18.427Z,13.10
2018-06-22T00:59:48.627Z,13.00
2018-06-22T01:02:19.009Z,12.90
2018-06-22T01:04:49.266Z,12.80
2018-06-22T01:07:19.548Z,12.80
2018-06-22T01:09:49.833Z,12.80
2018-06-22T01:12:20.517Z,12.70
2018-06-22T01:14:50.800Z,12.60
2018-06-22T01:17:21.091Z,12.60
2018-06-22T01:19:51.359Z,12.50
2018-06-22T01:22:21.842Z,12.40
2018-06-22T01:24:52.043Z,12.30
2018-06-22T01:27:22.403Z,12.20
2018-06-22T01:29:52.655Z,12.10
2018-06-22T01:32:23.079Z,12.00
2018-06-22T01:34:53.311Z,11.90
2018-06-22T01:37:23.615Z,12.00
2018-06-22T01:39:53.895Z,11.90
2018-06-22T01:42:24.178Z,11.80
2018-06-22T01:44:54.506Z,11.70
2018-06-22T01:47:24.822Z,11.70
2018-06-22T01:49:55.322Z,11.70
2018-06-22T01:52:25.846Z,11.70
2018-06-22T01:54:56.147Z,11.70
2018-06-22T01:57:26.412Z,11.70
2018-06-22T01:59:56.802Z,11.40
2018-06-22T02:02:27.094Z,11.20
2018-06-22T02:04:57.425Z,11.20
2018-06-22T02:07:27.394Z,11.10
2018-06-22T02:09:57.627Z,11.00
2018-06-22T02:12:28.011Z,10.90
2018-06-22T02:14:58.485Z,10.90
2018-06-22T02:17:28.850Z,10.90
2018-06-22T02:19:59.251Z,11.00
2018-06-22T02:22:29.508Z,10.90
2018-06-22T02:25:00.095Z,11.00
2018-06-22T02:27:31.113Z,11.00
2018-06-22T02:30:01.494Z,10.90
2018-06-22T02:32:31.876Z,10.40
2018-06-22T02:35:02.176Z,10.40
2018-06-22T02:37:32.528Z,10.00
2018-06-22T02:40:03.067Z,9.90
2018-06-22T02:42:33.459Z,9.90
2018-06-22T02:45:04.195Z,9.90
2018-06-22T02:47:34.424Z,9.50
2018-06-22T02:50:04.795Z,9.70
2018-06-22T02:52:35.049Z,9.60
2018-06-22T02:55:05.676Z,9.70
2018-06-22T02:57:36.040Z,9.40
2018-06-22T03:00:06.329Z,9.30
2018-06-22T03:02:36.620Z,9.40
2018-06-22T03:05:06.977Z,9.40
2018-06-22T03:07:37.263Z,9.50
2018-06-22T03:10:07.532Z,9.40
2018-06-22T03:12:37.875Z,9.70
2018-06-22T03:15:08.194Z,9.70
2018-06-22T03:17:38.719Z,9.80
2018-06-22T03:20:09.003Z,9.80
2018-06-22T03:22:39.468Z,9.80
2018-06-22T03:25:09.656Z,9.80
2018-06-22T03:27:40.063Z,9.70
2018-06-22T03:30:10.361Z,9.60
2018-06-22T03:32:40.823Z,9.60
2018-06-22T03:35:11.050Z,9.70
2018-06-22T03:37:41.740Z,9.70
2018-06-22T03:40:11.978Z,9.70
2018-06-22T03:42:42.268Z,9.70
2018-06-22T03:45:12.554Z,9.70
2018-06-22T03:47:42.846Z,9.70
2018-06-22T03:50:13.058Z,9.70
2018-06-22T03:52:43.314Z,9.60
2018-06-22T03:55:13.598Z,9.40
2018-06-22T03:57:43.826Z,9.50
2018-06-22T04:00:14.111Z,9.40
2018-06-22T04:02:44.390Z,9.30
2018-06-22T04:05:14.659Z,9.10
2018-06-22T04:07:44.915Z,8.90
2018-06-22T04:10:15.175Z,9.00
2018-06-22T04:12:45.432Z,8.90
2018-06-22T04:15:15.932Z,8.80
2018-06-22T04:17:50.858Z,9.00
2018-06-22T04:20:23.293Z,9.10
2018-06-22T04:22:54.060Z,9.30
2018-06-22T04:25:25.120Z,9.50
2018-06-22T04:27:55.513Z,9.60
2018-06-22T04:30:26.162Z,9.60
2018-06-22T04:32:56.767Z,9.90
2018-06-22T04:35:27.015Z,10.00
2018-06-22T04:37:57.251Z,10.10
2018-06-22T04:40:27.578Z,10.20
2018-06-22T04:42:57.803Z,10.30
2018-06-22T04:45:29.128Z,10.30
2018-06-22T04:47:59.439Z,10.40
2018-06-22T04:50:29.909Z,10.70
2018-06-22T04:53:00.119Z,10.80
2018-06-22T04:55:30.450Z,11.00
2018-06-22T04:58:00.851Z,11.10
2018-06-22T05:00:31.419Z,11.30
2018-06-22T05:03:01.664Z,11.40
2018-06-22T05:05:32.114Z,11.40
2018-06-22T05:08:02.383Z,11.60
2018-06-22T05:10:32.659Z,11.60
2018-06-22T05:13:03.107Z,11.60
2018-06-22T05:15:33.337Z,11.70
2018-06-22T05:18:03.633Z,11.80
2018-06-22T05:20:34.004Z,11.80
2018-06-22T05:23:04.279Z,11.80
2018-06-22T05:25:34.787Z,11.90
2018-06-22T05:28:05.196Z,12.10
2018-06-22T05:30:35.512Z,12.10
2018-06-22T05:33:05.811Z,12.20
2018-06-22T05:35:36.055Z,12.30
2018-06-22T05:38:06.438Z,12.40
2018-06-22T05:40:36.656Z,12.50
2018-06-22T05:43:07.078Z,12.80
2018-06-22T05:45:37.726Z,12.60
2018-06-22T05:48:08.039Z,12.60
2018-06-22T05:50:38.324Z,12.60
2018-06-22T05:53:08.568Z,12.90
2018-06-22T05:55:38.852Z,13.10
2018-06-22T05:58:09.089Z,13.00
2018-06-22T06:00:39.342Z,12.80
2018-06-22T06:03:09.632Z,12.80
2018-06-22T06:05:40.024Z,13.00
2018-06-22T06:08:10.286Z,13.20
2018-06-22T06:10:40.889Z,13.10
2018-06-22T06:13:11.168Z,13.10
2018-06-22T06:15:41.423Z,13.00
2018-06-22T06:18:11.763Z,13.20
2018-06-22T06:20:42.012Z,13.30
2018-06-22T06:23:12.360Z,13.70
2018-06-22T06:25:42.631Z,13.70
2018-06-22T06:28:12.894Z,14.00
2018-06-22T06:30:43.109Z,14.00
2018-06-22T06:33:13.395Z,14.20
2018-06-22T06:35:43.638Z,14.20
2018-06-22T06:38:13.931Z,14.30
2018-06-22T06:40:44.195Z,14.30
2018-06-22T06:43:14.520Z,14.20
2018-06-22T06:45:44.882Z,13.90
2018-06-22T06:48:15.211Z,13.90
2018-06-22T06:50:45.478Z,13.90
2018-06-22T06:53:15.740Z,13.70
2018-06-22T06:55:46.033Z,13.80
2018-06-22T06:58:16.344Z,13.90
2018-06-22T07:00:46.594Z,14.10
2018-06-22T07:03:16.862Z,14.30
2018-06-22T07:05:47.138Z,14.60
2018-06-22T07:08:17.427Z,14.50
2018-06-22T07:10:47.910Z,14.80
2018-06-22T07:13:18.195Z,15.00
2018-06-22T07:15:48.428Z,15.10
2018-06-22T07:18:18.676Z,15.10
2018-06-22T07:20:48.954Z,14.90
2018-06-22T07:23:19.252Z,15.30
2018-06-22T07:25:49.492Z,15.40
2018-06-22T07:28:19.736Z,15.40
2018-06-22T07:30:49.975Z,15.20
2018-06-22T07:33:20.265Z,15.00
2018-06-22T07:35:50.541Z,15.10
2018-06-22T07:38:20.819Z,15.20
2018-06-22T07:40:51.079Z,15.50
2018-06-22T07:43:21.370Z,15.70
2018-06-22T07:45:51.676Z,15.80
2018-06-22T07:48:21.948Z,15.50
2018-06-22T07:50:52.458Z,15.80
2018-06-22T07:53:22.762Z,16.00
2018-06-22T07:55:53.068Z,15.80
2018-06-22T07:58:23.361Z,15.90
2018-06-22T08:00:53.998Z,15.90
2018-06-22T08:03:24.290Z,16.10
2018-06-22T08:05:54.688Z,16.00
2018-06-22T08:08:24.915Z,16.00
2018-06-22T08:10:55.525Z,16.10
2018-06-22T08:13:26.093Z,16.10
2018-06-22T08:15:56.355Z,16.30
2018-06-22T08:18:26.758Z,16.10
2018-06-22T08:20:56.993Z,16.60
2018-06-22T08:23:27.363Z,16.10
2018-06-22T08:25:57.702Z,15.90
2018-06-22T08:28:28.166Z,16.20
2018-06-22T08:30:58.426Z,16.60
2018-06-22T08:33:28.907Z,16.40
2018-06-22T08:35:59.171Z,16.10
2018-06-22T08:38:29.879Z,15.90
2018-06-22T08:41:00.118Z,15.80
2018-06-22T08:43:30.695Z,15.70
2018-06-22T08:46:01.076Z,16.00
2018-06-22T08:48:31.382Z,16.10
2018-06-22T08:51:01.627Z,16.10
2018-06-22T08:53:31.903Z,16.40
2018-06-22T08:56:04.603Z,16.60
2018-06-22T08:58:35.542Z,17.10
2018-06-22T09:01:05.811Z,17.40
2018-06-22T09:03:36.103Z,17.30
2018-06-22T09:06:06.384Z,17.00
2018-06-22T09:08:36.765Z,17.00
2018-06-22T09:11:06.991Z,17.10
2018-06-22T09:13:37.280Z,17.50
2018-06-22T09:16:07.535Z,17.70
2018-06-22T09:18:37.867Z,17.90
2018-06-22T09:21:08.202Z,17.70
2018-06-22T09:23:38.890Z,17.60
2018-06-22T09:26:09.174Z,17.10
2018-06-22T09:28:39.936Z,17.70
2018-06-22T09:31:10.181Z,17.70
2018-06-22T09:33:40.543Z,17.90
2018-06-22T09:36:12.026Z,17.80
2018-06-22T09:38:46.234Z,17.40
2018-06-22T09:41:16.830Z,17.50
2018-06-22T09:43:47.265Z,17.20
2018-06-22T09:46:17.540Z,17.40
2018-06-22T09:48:47.823Z,17.30
2018-06-22T09:51:18.093Z,17.00
2018-06-22T09:53:48.497Z,17.60
2018-06-22T09:56:18.731Z,17.90
2018-06-22T09:58:48.993Z,17.80
2018-06-22T10:01:19.224Z,17.70
2018-06-22T10:03:50.178Z,17.20
2018-06-22T10:06:20.442Z,17.40
2018-06-22T10:08:50.806Z,17.40
2018-06-22T10:11:21.133Z,17.30
2018-06-22T10:13:51.443Z,17.50
2018-06-22T10:16:24.847Z,17.30
2018-06-22T10:18:56.808Z,17.20
2018-06-22T10:21:28.183Z,17.20
2018-06-22T10:23:58.447Z,17.10
2018-06-22T10:26:28.727Z,17.50
2018-06-22T10:28:58.977Z,17.80
2018-06-22T10:31:29.339Z,17.80
2018-06-22T10:34:01.429Z,18.40
2018-06-22T10:36:31.724Z,18.50
2018-06-22T10:39:02.076Z,18.70
2018-06-22T10:41:32.510Z,18.10
2018-06-22T10:44:02.823Z,17.70
2018-06-22T10:46:34.090Z,17.60
2018-06-22T10:49:04.684Z,18.00
2018-06-22T10:51:34.970Z,18.20
2018-06-22T10:54:05.315Z,17.90
2018-06-22T10:56:35.654Z,18.10
2018-06-22T10:59:06.243Z,18.20
2018-06-22T11:01:36.679Z,18.40
2018-06-22T11:04:07.338Z,18.70
2018-06-22T11:06:37.706Z,18.70
2018-06-22T11:09:10.843Z,18.40
2018-06-22T11:11:41.159Z,17.80
2018-06-22T11:14:11.387Z,17.90
2018-06-22T11:16:41.783Z,17.60
2018-06-22T11:19:12.536Z,17.80
2018-06-22T11:21:46.613Z,18.10
2018-06-22T11:24:20.261Z,18.40
2018-06-22T11:26:50.719Z,19.00
2018-06-22T11:29:21.422Z,19.40
2018-06-22T11:31:51.739Z,20.40
2018-06-22T11:34:22.309Z,21.10
2018-06-22T11:36:52.566Z,21.50
2018-06-22T11:39:23.007Z,21.20
2018-06-22T11:41:54.367Z,20.70
2018-06-22T11:44:30.180Z,20.00
2018-06-22T11:47:03.214Z,18.60
2018-06-22T11:49:36.206Z,18.60
2018-06-22T11:52:08.119Z,18.90
2018-06-22T11:54:38.778Z,18.40
2018-06-22T11:57:09.026Z,18.10
2018-06-22T11:59:39.427Z,17.70
2018-06-22T12:02:09.727Z,17.80
2018-06-22T12:04:40.290Z,17.90
2018-06-22T12:07:10.599Z,17.60
2018-06-22T12:09:40.966Z,17.60
2018-06-22T12:12:11.334Z,17.90
2018-06-22T12:14:41.739Z,17.60
2018-06-22T12:17:12.167Z,17.60
2018-06-22T12:19:42.533Z,17.30
2018-06-22T12:22:12.842Z,17.30
2018-06-22T12:24:43.127Z,16.90
2018-06-22T12:27:13.428Z,16.90
2018-06-22T12:29:43.755Z,16.40
2018-06-22T12:32:14.183Z,16.70
2018-06-22T12:34:44.747Z,16.80
2018-06-22T12:37:15.084Z,17.10
2018-06-22T12:39:45.487Z,16.90
2018-06-22T12:42:16.012Z,17.30
2018-06-22T12:44:46.871Z,17.10
2018-06-22T12:47:17.227Z,17.40
2018-06-22T12:49:47.636Z,17.20
2018-06-22T12:52:18.305Z,17.00
2018-06-22T12:54:48.603Z,17.30
2018-06-22T12:57:18.951Z,17.60
2018-06-22T12:59:49.315Z,17.40
2018-06-22T13:02:19.666Z,17.60
2018-06-22T13:04:50.063Z,17.80
2018-06-22T13:07:20.386Z,18.10
2018-06-22T13:09:50.767Z,18.30
2018-06-22T13:12:21.451Z,18.50
2018-06-22T13:14:51.739Z,18.40
2018-06-22T13:17:22.262Z,18.70
2018-06-22T13:19:52.563Z,18.20
2018-06-22T13:22:22.907Z,18.00
2018-06-22T13:24:53.235Z,18.50
2018-06-22T13:27:23.865Z,18.40
2018-06-22T13:29:54.177Z,17.90
2018-06-22T13:32:24.823Z,17.60
2018-06-22T13:34:55.371Z,18.00
2018-06-22T13:37:25.875Z,18.50
2018-06-22T13:39:56.149Z,18.60
2018-06-22T13:42:26.915Z,18.70
2018-06-22T13:44:57.210Z,18.40
2018-06-22T13:47:28.022Z,18.20
2018-06-22T13:49:58.632Z,18.40
2018-06-22T13:52:29.406Z,18.40
2018-06-22T13:54:59.735Z,18.10
2018-06-22T13:57:35.057Z,18.10
2018-06-22T14:00:20.323Z,18.60
2018-06-22T14:02:51.782Z,18.50
2018-06-22T14:05:28.946Z,18.90
2018-06-22T14:07:59.515Z,19.60
2018-06-22T14:10:32.168Z,19.90
2018-06-22T14:13:05.223Z,19.80
2018-06-22T14:15:36.075Z,19.50
2018-06-22T14:18:10.237Z,19.40
2018-06-22T14:20:40.893Z,19.20
2018-06-22T14:23:12.380Z,19.30
2018-06-22T14:25:43.524Z,18.20
2018-06-22T14:28:13.910Z,17.90
2018-06-22T14:30:44.167Z,18.20
2018-06-22T14:33:14.583Z,18.30
2018-06-22T14:35:45.197Z,18.40
2018-06-22T14:38:15.535Z,18.20
2018-06-22T14:40:51.847Z,18.40
2018-06-22T14:43:24.181Z,18.30
2018-06-22T14:45:54.879Z,18.10
2018-06-22T14:48:25.422Z,18.40
2018-06-22T14:50:58.000Z,18.70
2018-06-22T14:53:33.542Z,19.20
2018-06-22T14:56:09.202Z,18.90
2018-06-22T14:59:01.122Z,19.20
2018-06-22T15:01:38.675Z,18.90
2018-06-22T15:04:15.670Z,18.70
2018-06-22T15:06:52.402Z,18.50
2018-06-22T15:09:22.867Z,18.30
2018-06-22T15:11:54.787Z,18.20
2018-06-22T15:14:25.510Z,18.40
2018-06-22T15:16:56.428Z,18.70
2018-06-22T15:19:28.839Z,19.00
2018-06-22T15:21:59.230Z,19.00
2018-06-22T15:24:29.861Z,18.90
2018-06-22T15:27:00.418Z,18.70
2018-06-22T15:29:30.755Z,18.90
2018-06-22T15:32:01.599Z,18.70
2018-06-22T15:34:37.277Z,18.90
2018-06-22T15:37:12.891Z,19.60
2018-06-22T15:39:48.446Z,19.40
2018-06-22T15:42:24.099Z,19.10
2018-06-22T15:47:02.343Z,18.90
2018-06-22T15:49:37.940Z,18.60
2018-06-22T15:52:13.646Z,18.70
2018-06-22T15:54:49.369Z,18.40
2018-06-22T15:57:19.790Z,19.00
2018-06-22T15:59:50.236Z,19.70
2018-06-22T16:02:25.864Z,20.90
2018-06-22T16:05:15.685Z,21.60
2018-06-22T16:07:47.658Z,21.10
2018-06-22T16:10:18.156Z,20.70
2018-06-22T16:12:48.538Z,20.40
2018-06-22T16:15:24.001Z,19.90
2018-06-22T16:17:59.463Z,19.40
2018-06-22T16:22:37.982Z,19.90
2018-06-22T16:25:13.626Z,19.60
2018-06-22T16:27:46.727Z,19.40
2018-06-22T16:30:17.068Z,19.20
2018-06-22T16:32:48.148Z,19.30
2018-06-22T16:35:19.260Z,19.10
2018-06-22T16:37:49.550Z,19.00
2018-06-22T16:40:19.911Z,18.90
2018-06-22T16:42:50.734Z,18.40
2018-06-22T16:45:22.542Z,18.30
2018-06-22T16:47:53.969Z,18.30
2018-06-22T16:50:24.464Z,18.30
2018-06-22T16:52:55.051Z,18.20
2018-06-22T16:55:25.919Z,18.30
2018-06-22T16:57:57.067Z,18.30
2018-06-22T17:00:27.406Z,18.30
2018-06-22T17:02:57.784Z,18.40
2018-06-22T17:05:28.128Z,18.30
2018-06-22T17:08:04.267Z,18.30
2018-06-22T17:11:39.229Z,18.10
2018-06-22T17:14:14.755Z,18.40
2018-06-22T17:16:50.289Z,18.50
2018-06-22T17:19:21.594Z,18.30
2018-06-22T17:21:52.069Z,18.20
2018-06-22T17:24:22.554Z,18.30
2018-06-22T17:26:53.300Z,18.30
2018-06-22T17:29:23.860Z,18.30
2018-06-22T17:31:54.210Z,18.30
2018-06-22T17:34:25.147Z,18.40
2018-06-22T17:36:55.587Z,18.30
2018-06-22T17:39:26.332Z,18.00
2018-06-22T17:41:57.131Z,17.90
2018-06-22T17:44:27.799Z,17.80
2018-06-22T17:46:58.796Z,17.80
2018-06-22T17:49:30.276Z,17.80
2018-06-22T17:52:00.558Z,17.50
2018-06-22T17:54:31.196Z,17.50
2018-06-22T17:57:01.586Z,17.60
2018-06-22T17:59:38.296Z,17.30
2018-06-22T18:02:23.884Z,17.60
2018-06-22T18:05:00.355Z,17.50
2018-06-22T18:07:36.351Z,17.50
2018-06-22T18:10:12.199Z,17.40
2018-06-22T18:12:50.066Z,17.40
2018-06-22T18:15:21.345Z,17.40
2018-06-22T18:17:51.729Z,16.70
2018-06-22T18:20:22.276Z,17.10
2018-06-22T18:22:54.449Z,16.80
2018-06-22T18:25:24.701Z,16.80
2018-06-22T18:27:55.013Z,16.50
2018-06-22T18:30:25.384Z,16.50
2018-06-22T18:32:55.770Z,16.60
2018-06-22T18:35:26.125Z,16.50
2018-06-22T18:37:56.602Z,16.50
2018-06-22T18:40:26.873Z,16.40
2018-06-22T18:42:57.384Z,16.40
2018-06-22T18:45:27.607Z,16.20
2018-06-22T18:47:58.074Z,16.00
2018-06-22T18:50:28.519Z,16.00
2018-06-22T18:53:04.070Z,16.00
2018-06-22T18:55:39.624Z,15.70
2018-06-22T18:59:14.462Z,15.50
2018-06-22T19:01:49.931Z,15.50
2018-06-22T19:04:20.244Z,15.40
2018-06-22T19:06:50.510Z,15.10
2018-06-22T19:09:20.823Z,14.90
2018-06-22T19:11:51.070Z,14.60
2018-06-22T19:14:21.399Z,14.20
2018-06-22T19:16:51.828Z,14.30
2018-06-22T19:19:22.459Z,14.30
2018-06-22T19:21:52.801Z,14.10
2018-06-22T19:24:23.604Z,13.80
2018-06-22T19:26:54.147Z,14.00
2018-06-22T19:29:25.325Z,13.80
2018-06-22T19:31:55.778Z,13.70
2018-06-22T19:34:31.497Z,13.80
2018-06-22T19:37:01.812Z,13.90
2018-06-22T19:39:32.544Z,13.70
2018-06-22T19:42:02.820Z,13.80
2018-06-22T19:44:38.812Z,13.80
2018-06-22T19:47:14.529Z,13.90
2018-06-22T19:50:49.493Z,13.60
2018-06-22T19:53:25.095Z,13.40
2018-06-22T19:55:55.827Z,13.30
2018-06-22T19:58:26.294Z,13.30
2018-06-22T20:00:57.798Z,13.30
2018-06-22T20:03:28.194Z,13.30
2018-06-22T20:05:58.732Z,13.30
2018-06-22T20:08:29.588Z,13.20
2018-06-22T20:10:59.965Z,13.10
2018-06-22T20:13:29.943Z,13.00
2018-06-22T20:16:00.303Z,12.60
2018-06-22T20:18:30.697Z,12.50
2018-06-22T20:21:01.027Z,12.50
2018-06-22T20:23:31.443Z,12.40
2018-06-22T20:26:01.732Z,12.20
2018-06-22T20:28:32.042Z,12.10
2018-06-22T20:31:02.302Z,12.00
2018-06-22T20:33:32.551Z,11.60
2018-06-22T20:36:08.132Z,11.60
2018-06-22T20:38:45.584Z,11.50
2018-06-22T20:41:21.670Z,11.40
2018-06-22T20:43:59.353Z,11.50
2018-06-22T20:46:35.404Z,11.30
2018-06-22T20:49:11.134Z,11.10
2018-06-22T20:51:45.005Z,11.30
2018-06-22T20:54:15.305Z,11.20
2018-06-22T20:56:45.746Z,11.20
2018-06-22T20:59:15.714Z,11.20
2018-06-22T21:01:45.863Z,11.10
2018-06-22T21:04:16.348Z,11.30
2018-06-22T21:06:47.227Z,11.30
2018-06-22T21:09:17.518Z,11.40
2018-06-22T21:11:47.851Z,11.50
2018-06-22T21:14:18.648Z,11.50
2018-06-22T21:16:49.067Z,11.40
2018-06-22T21:19:19.347Z,11.60
2018-06-22T21:22:12.417Z,11.50
2018-06-22T21:24:42.771Z,11.40
2018-06-22T21:27:18.455Z,11.40
2018-06-22T21:29:53.981Z,11.40
2018-06-22T21:32:29.762Z,11.40
2018-06-22T21:35:05.175Z,11.40
2018-06-22T21:37:42.060Z,11.30
2018-06-22T21:40:15.874Z,11.10
2018-06-22T21:42:47.179Z,11.00
2018-06-22T21:45:17.700Z,11.10
2018-06-22T21:47:48.626Z,11.00
2018-06-22T21:50:23.647Z,11.10
2018-06-22T21:52:56.049Z,11.00
2018-06-22T21:55:28.390Z,11.00
2018-06-22T21:57:58.787Z,11.00
2018-06-22T22:00:32.095Z,11.00
2018-06-22T22:03:03.044Z,11.20
2018-06-22T22:05:33.660Z,11.20
2018-06-22T22:08:04.087Z,11.10
2018-06-22T22:10:39.527Z,11.20
2018-06-22T22:13:09.914Z,11.10
2018-06-22T22:15:40.456Z,11.00
2018-06-22T22:18:10.801Z,11.10
2018-06-22T22:20:41.180Z,11.20
2018-06-22T22:23:11.580Z,11.20
2018-06-22T22:25:42.117Z,11.20
2018-06-22T22:28:13.840Z,11.10
2018-06-22T22:30:45.179Z,11.10
2018-06-22T22:33:15.818Z,11.00
2018-06-22T22:35:46.652Z,10.90
2018-06-22T22:38:17.214Z,10.90
2018-06-22T22:40:47.587Z,10.80
2018-06-22T22:43:17.963Z,10.70
2018-06-22T22:45:50.358Z,10.70
2018-06-22T22:48:21.762Z,10.60
2018-06-22T22:50:52.658Z,10.70
2018-06-22T22:53:23.847Z,10.70
2018-06-22T22:55:54.345Z,10.50
2018-06-22T22:58:25.862Z,10.50
2018-06-22T23:00:56.694Z,10.50
2018-06-22T23:03:27.053Z,10.50
2018-06-22T23:05:57.381Z,10.50
2018-06-22T23:08:27.767Z,10.40
2018-06-22T23:10:58.052Z,10.40
2018-06-22T23:13:28.461Z,10.30
2018-06-22T23:15:58.809Z,10.10
2018-06-22T23:18:29.461Z,10.10
2018-06-22T23:20:59.797Z,10.10
2018-06-22T23:23:38.846Z,10.00
2018-06-22T23:26:09.288Z,9.90
2018-06-22T23:28:39.581Z,9.90
2018-06-22T23:31:09.866Z,9.90
2018-06-22T23:33:40.422Z,9.90
2018-06-22T23:36:11.792Z,10.00
2018-06-22T23:38:42.638Z,10.00
2018-06-22T23:41:12.950Z,10.00
2018-06-22T23:43:46.784Z,9.90
2018-06-22T23:46:22.341Z,10.00
2018-06-22T23:48:52.543Z,10.10
2018-06-22T23:51:23.114Z,10.10
2018-06-22T23:53:53.514Z,10.10
2018-06-22T23:56:23.879Z,10.10
2018-06-22T23:58:54.159Z,10.10
